Time;durP1;ratioP1;P1;durP2;ratioP2;P2;SDS_P1;SDS_P2;PMS_P1;PMS_P2;Temp;Humidity;BMP_temperature;BMP_pressure;BME280_temperature;BME280_humidity;BME280_pressure;Samples;Min_cycle;Max_cycle;Signal;HPM_P1;HPM_P2
2021/06/18 00:00:34;;;;;;;1.00;1.00;;;28.60;60.70;;;;;;4226437;27;20054;-46
2021/06/18 00:02:58;;;;;;;3.00;1.38;;;28.60;60.70;;;;;;4227241;27;20054;-49
2021/06/18 00:05:21;;;;;;;2.17;1.00;;;28.60;60.80;;;;;;4225497;28;20566;-45
2021/06/18 00:07:44;;;;;;;0.85;0.85;;;28.60;60.80;;;;;;4227260;27;20074;-46
2021/06/18 00:10:08;;;;;;;0.50;0.50;;;28.50;60.70;;;;;;4227129;28;20047;-49
2021/06/18 00:12:30;;;;;;;0.32;0.32;;;28.50;60.80;;;;;;4226925;27;20052;-45
2021/06/18 00:14:52;;;;;;;0.73;0.73;;;28.50;60.80;;;;;;4226871;27;20055;-50
2021/06/18 00:17:15;;;;;;;0.60;0.60;;;28.50;60.80;;;;;;4226899;27;20051;-47
2021/06/18 00:19:38;;;;;;;1.38;1.38;;;28.50;60.80;;;;;;4227061;27;20067;-48
2021/06/18 00:22:00;;;;;;;1.00;1.00;;;28.50;60.80;;;;;;4226584;27;20052;-46
2021/06/18 00:24:22;;;;;;;1.40;1.00;;;28.50;60.90;;;;;;4210116;28;20048;-49
2021/06/18 00:26:44;;;;;;;0.95;0.95;;;28.40;60.80;;;;;;4226229;28;20055;-43
2021/06/18 00:29:06;;;;;;;0.20;0.20;;;28.40;60.80;;;;;;4224768;27;20043;-45
2021/06/18 00:31:28;;;;;;;0.85;0.85;;;28.40;60.90;;;;;;4227023;27;20058;-48
2021/06/18 00:33:51;;;;;;;0.55;0.55;;;28.40;60.90;;;;;;4226816;27;20436;-48
2021/06/18 00:36:14;;;;;;;1.00;1.00;;;28.40;61.00;;;;;;4225104;28;20599;-48
2021/06/18 00:38:36;;;;;;;2.85;0.93;;;28.40;61.10;;;;;;4226583;27;20516;-46
2021/06/18 00:40:58;;;;;;;0.25;0.25;;;28.30;61.10;;;;;;4210593;28;20044;-46
2021/06/18 00:43:21;;;;;;;1.13;1.13;;;28.30;61.20;;;;;;4226523;27;20047;-45
2021/06/18 00:45:43;;;;;;;0.73;0.73;;;28.30;61.30;;;;;;4226388;27;20055;-46
2021/06/18 00:48:08;;;;;;;1.55;0.45;;;28.30;61.40;;;;;;4209470;28;20055;-48
2021/06/18 00:50:30;;;;;;;0.70;0.70;;;28.30;61.40;;;;;;4215255;27;20126;-47
2021/06/18 00:52:54;;;;;;;1.30;1.25;;;28.30;61.40;;;;;;4226741;27;20059;-47
2021/06/18 00:55:17;;;;;;;0.20;0.20;;;28.30;61.40;;;;;;4226288;27;20048;-46
2021/06/18 00:57:39;;;;;;;1.15;1.15;;;28.20;61.40;;;;;;4226342;27;20047;-49
2021/06/18 01:00:01;;;;;;;0.60;0.45;;;28.20;61.40;;;;;;4226627;27;20051;-45
2021/06/18 01:02:23;;;;;;;6.32;2.67;;;28.20;61.40;;;;;;4226756;27;20051;-45
2021/06/18 01:04:46;;;;;;;0.75;0.75;;;28.20;61.40;;;;;;4226045;28;20735;-49
2021/06/18 01:07:10;;;;;;;2.00;0.85;;;28.20;61.40;;;;;;4209105;28;20478;-47
2021/06/18 01:09:42;;;;;;;0.85;0.85;;;28.20;61.40;;;;;;4209611;28;20139;-44
2021/06/18 01:12:09;;;;;;;0.50;0.50;;;28.20;61.40;;;;;;4208146;28;20074;-47
2021/06/18 01:14:39;;;;;;;0.22;0.22;;;28.10;61.30;;;;;;4208987;28;20048;-51
2021/06/18 01:17:07;;;;;;;4.10;2.25;;;28.20;61.40;;;;;;4208915;28;20073;-50
2021/06/18 01:19:40;;;;;;;0.30;0.30;;;28.20;61.40;;;;;;4208475;28;20052;-48
2021/06/18 01:22:09;;;;;;;2.85;2.03;;;28.20;61.40;;;;;;4208912;28;20058;-46
2021/06/18 01:24:46;;;;;;;1.13;1.13;;;28.10;61.30;;;;;;4219869;28;20055;-46
2021/06/18 01:27:30;;;;;;;0.50;0.50;;;28.10;61.30;;;;;;4225322;27;20043;-49
2021/06/18 01:29:58;;;;;;;1.00;1.00;;;28.10;61.40;;;;;;4225613;27;20126;-47
2021/06/18 01:32:26;;;;;;;0.40;0.40;;;28.10;61.40;;;;;;4225033;28;20513;-47
2021/06/18 01:34:49;;;;;;;0.57;0.57;;;28.10;61.40;;;;;;4225656;28;20043;-49
2021/06/18 01:37:14;;;;;;;0.40;0.40;;;28.10;61.50;;;;;;4225821;28;20043;-50
2021/06/18 01:39:37;;;;;;;0.73;0.73;;;28.00;61.50;;;;;;4212419;27;20040;-48
2021/06/18 01:42:02;;;;;;;0.13;0.13;;;28.00;61.60;;;;;;4225609;28;20039;-51
2021/06/18 01:44:25;;;;;;;5.05;1.05;;;28.00;61.60;;;;;;4225621;27;20079;-46
2021/06/18 01:46:50;;;;;;;5.18;0.68;;;28.00;61.60;;;;;;4225875;27;20043;-47
2021/06/18 01:49:14;;;;;;;1.73;1.63;;;28.00;61.60;;;;;;4224868;28;20051;-48
2021/06/18 01:51:38;;;;;;;0.57;0.57;;;28.00;61.60;;;;;;4225393;27;20051;-45
2021/06/18 01:54:01;;;;;;;0.45;0.45;;;28.00;61.60;;;;;;4225526;27;20501;-45
2021/06/18 01:56:25;;;;;;;0.28;0.28;;;28.00;61.60;;;;;;4225582;27;20054;-47
2021/06/18 01:58:50;;;;;;;0.30;0.30;;;28.00;61.60;;;;;;4225553;27;20046;-46
2021/06/18 02:01:13;;;;;;;0.63;0.32;;;28.00;61.50;;;;;;4225744;27;20063;-45
2021/06/18 02:03:37;;;;;;;1.40;1.35;;;28.00;61.50;;;;;;4225506;27;20058;-50
2021/06/18 02:06:05;;;;;;;6.22;1.05;;;28.00;61.50;;;;;;4220067;28;20096;-46
2021/06/18 02:08:28;;;;;;;0.13;0.13;;;28.00;61.50;;;;;;4224840;27;20413;-47
2021/06/18 02:10:52;;;;;;;1.00;1.00;;;28.00;61.50;;;;;;4224908;28;20048;-48
2021/06/18 02:13:15;;;;;;;0.10;0.10;;;27.90;61.40;;;;;;4225123;28;20054;-46
2021/06/18 02:15:41;;;;;;;0.50;0.50;;;27.90;61.50;;;;;;4225352;28;20124;-46
2021/06/18 02:18:04;;;;;;;0.80;0.80;;;27.90;61.50;;;;;;4225308;27;20077;-48
2021/06/18 02:20:29;;;;;;;2.08;0.65;;;27.90;61.60;;;;;;4224394;27;20048;-49
2021/06/18 02:22:52;;;;;;;0.55;0.55;;;27.90;61.70;;;;;;4224851;27;20408;-45
2021/06/18 02:25:15;;;;;;;0.98;0.95;;;27.90;61.80;;;;;;4224905;28;20043;-48
2021/06/18 02:27:40;;;;;;;0.20;0.20;;;27.90;61.80;;;;;;4225055;27;20078;-46
2021/06/18 02:30:02;;;;;;;0.40;0.40;;;27.80;61.70;;;;;;4224740;28;20144;-49
2021/06/18 02:32:26;;;;;;;0.65;0.65;;;27.80;61.60;;;;;;4224981;27;20063;-46
2021/06/18 02:34:49;;;;;;;0.60;0.60;;;27.90;61.70;;;;;;4224715;27;20047;-46
2021/06/18 02:37:13;;;;;;;0.43;0.43;;;27.80;61.60;;;;;;4224434;27;20135;-46
2021/06/18 02:39:35;;;;;;;0.38;0.38;;;27.80;61.60;;;;;;4195385;28;20458;-47
2021/06/18 02:41:57;;;;;;;0.55;0.47;;;27.90;61.60;;;;;;4198863;28;20521;-45
2021/06/18 02:44:19;;;;;;;0.52;0.52;;;27.80;61.60;;;;;;4205855;28;20597;-45
2021/06/18 02:46:47;;;;;;;1.45;1.35;;;27.80;62.40;;;;;;4205631;28;20051;-46
2021/06/18 02:49:13;;;;;;;1.40;1.15;;;27.80;61.60;;;;;;4209057;28;20105;-47
2021/06/18 02:51:40;;;;;;;1.00;0.95;;;27.80;61.60;;;;;;4224557;28;20417;-46
2021/06/18 02:54:11;;;;;;;0.10;0.10;;;27.70;61.50;;;;;;4221757;27;20054;-51
2021/06/18 02:56:40;;;;;;;1.08;1.08;;;27.70;61.50;;;;;;4224697;28;20075;-45
2021/06/18 02:59:07;;;;;;;0.55;0.55;;;27.70;61.60;;;;;;4224179;28;20501;-45
2021/06/18 03:01:30;;;;;;;0.52;0.52;;;27.70;61.70;;;;;;4224526;28;20560;-46
2021/06/18 03:03:56;;;;;;;0.80;0.80;;;27.70;61.90;;;;;;4224390;28;20044;-46
2021/06/18 03:06:20;;;;;;;0.80;0.80;;;27.70;61.90;;;;;;4207947;28;20478;-47
2021/06/18 03:08:47;;;;;;;0.28;0.28;;;27.70;62.00;;;;;;4213479;28;20139;-47
2021/06/18 03:11:12;;;;;;;0.52;0.52;;;27.70;62.00;;;;;;4207573;28;20044;-47
2021/06/18 03:13:39;;;;;;;0.68;0.68;;;27.60;61.90;;;;;;4207656;28;20040;-50
2021/06/18 03:16:03;;;;;;;0.40;0.40;;;27.60;62.00;;;;;;4207951;28;20063;-47
2021/06/18 03:18:26;;;;;;;0.80;0.80;;;27.60;62.00;;;;;;4207440;28;20498;-48
2021/06/18 03:20:51;;;;;;;0.32;0.32;;;27.60;62.10;;;;;;4220082;28;20092;-51
2021/06/18 03:23:16;;;;;;;0.57;0.57;;;27.60;62.10;;;;;;4224156;28;20059;-51
2021/06/18 03:25:39;;;;;;;0.57;0.57;;;27.60;62.10;;;;;;4190921;28;20498;-46
2021/06/18 03:28:04;;;;;;;0.38;0.38;;;27.50;62.10;;;;;;4190637;28;20129;-48
2021/06/18 03:30:27;;;;;;;0.52;0.52;;;27.50;62.10;;;;;;4190844;28;20136;-46
2021/06/18 03:32:50;;;;;;;0.85;0.70;;;27.50;62.10;;;;;;4190705;28;20461;-46
2021/06/18 03:35:14;;;;;;;2.42;1.27;;;27.50;62.10;;;;;;4192406;28;20049;-47
2021/06/18 03:37:37;;;;;;;0.40;0.40;;;27.50;62.10;;;;;;4193315;28;20055;-49
2021/06/18 03:39:59;;;;;;;1.75;1.25;;;27.50;62.10;;;;;;4194010;28;20096;-50
2021/06/18 03:42:22;;;;;;;0.47;0.47;;;27.50;62.10;;;;;;4194097;28;20110;-47
2021/06/18 03:44:48;;;;;;;0.90;0.90;;;27.50;62.10;;;;;;4193919;28;20048;-46
2021/06/18 03:47:11;;;;;;;0.43;0.43;;;27.50;62.10;;;;;;4189238;28;20074;-47
2021/06/18 03:49:35;;;;;;;1.23;0.90;;;27.50;62.20;;;;;;4181927;28;20414;-47
2021/06/18 03:51:57;;;;;;;0.98;0.98;;;27.40;62.20;;;;;;4193420;28;20052;-46
2021/06/18 03:54:22;;;;;;;0.32;0.32;;;27.40;62.20;;;;;;4192458;28;20666;-47
2021/06/18 03:56:48;;;;;;;1.10;1.10;;;27.40;62.30;;;;;;4193344;28;21168;-46
2021/06/18 03:59:13;;;;;;;2.17;1.15;;;27.40;62.30;;;;;;4193017;28;20050;-47
2021/06/18 04:01:39;;;;;;;2.25;0.77;;;27.40;62.40;;;;;;4193663;28;20051;-49
2021/06/18 04:04:02;;;;;;;0.75;0.75;;;27.40;63.30;;;;;;4193339;28;20036;-46
2021/06/18 04:06:25;;;;;;;0.35;0.30;;;27.40;62.40;;;;;;4192518;28;20060;-49
2021/06/18 04:08:48;;;;;;;0.40;0.40;;;27.40;62.40;;;;;;4193261;28;20138;-47
2021/06/18 04:11:11;;;;;;;0.17;0.17;;;27.30;62.30;;;;;;4193667;28;20094;-46
2021/06/18 04:13:34;;;;;;;2.67;1.92;;;27.30;62.30;;;;;;4192037;28;20044;-46
2021/06/18 04:15:56;;;;;;;0.47;0.47;;;27.30;62.30;;;;;;4193395;28;20049;-48
2021/06/18 04:18:22;;;;;;;0.32;0.32;;;27.30;62.40;;;;;;4190495;28;20053;-47
2021/06/18 04:20:44;;;;;;;0.85;0.85;;;27.30;62.40;;;;;;4178228;28;20045;-45
2021/06/18 04:23:07;;;;;;;0.95;0.95;;;27.30;62.40;;;;;;4160328;28;20087;-49
2021/06/18 04:25:29;;;;;;;0.43;0.43;;;27.30;62.40;;;;;;4191604;28;20386;-47
2021/06/18 04:27:51;;;;;;;0.00;0.00;;;27.30;62.40;;;;;;4176909;28;20128;-46
2021/06/18 04:30:16;;;;;;;0.20;0.20;;;27.30;62.40;;;;;;4176812;28;20060;-47
2021/06/18 04:32:40;;;;;;;0.93;0.93;;;27.30;62.50;;;;;;4176822;28;20064;-47
2021/06/18 04:35:04;;;;;;;0.50;0.50;;;27.30;62.40;;;;;;4188211;28;20076;-46
2021/06/18 04:37:26;;;;;;;0.40;0.40;;;27.30;62.50;;;;;;4192816;28;20048;-47
2021/06/18 04:39:48;;;;;;;0.43;0.43;;;27.30;62.80;;;;;;4192933;28;20068;-45
2021/06/18 04:42:10;;;;;;;0.25;0.25;;;27.30;62.90;;;;;;4193426;28;20056;-51
2021/06/18 04:44:33;;;;;;;0.47;0.47;;;27.30;62.70;;;;;;4192605;28;20045;-47
2021/06/18 04:46:55;;;;;;;0.88;0.88;;;27.30;62.50;;;;;;4190531;28;20048;-52
2021/06/18 04:49:17;;;;;;;3.25;2.90;;;27.40;62.60;;;;;;4192806;28;20494;-46
2021/06/18 04:51:40;;;;;;;0.35;0.35;;;27.40;62.70;;;;;;4193045;28;20044;-45
2021/06/18 04:54:03;;;;;;;0.90;0.90;;;27.30;62.60;;;;;;4192952;28;20405;-49
2021/06/18 04:56:25;;;;;;;0.08;0.08;;;27.30;62.80;;;;;;4192247;28;20056;-50
2021/06/18 04:58:47;;;;;;;0.10;0.10;;;27.30;62.90;;;;;;4192346;28;20516;-49
2021/06/18 05:01:09;;;;;;;0.10;0.10;;;27.30;62.90;;;;;;4192918;28;20752;-46
2021/06/18 05:03:31;;;;;;;0.00;0.00;;;27.30;62.90;;;;;;4192303;28;21676;-46
2021/06/18 05:05:53;;;;;;;0.32;0.32;;;27.30;63.00;;;;;;4192777;28;20494;-46
2021/06/18 05:08:16;;;;;;;0.55;0.55;;;27.30;62.90;;;;;;4191193;28;20044;-45
2021/06/18 05:10:39;;;;;;;0.28;0.28;;;27.30;62.90;;;;;;4192724;28;20040;-47
2021/06/18 05:13:01;;;;;;;0.70;0.70;;;27.30;62.90;;;;;;4192533;28;20040;-46
2021/06/18 05:15:23;;;;;;;0.82;0.82;;;27.30;62.90;;;;;;4192704;28;20056;-47
2021/06/18 05:17:45;;;;;;;1.30;1.30;;;27.30;62.90;;;;;;4192281;28;20102;-45
2021/06/18 05:20:09;;;;;;;1.00;1.00;;;27.30;63.00;;;;;;4192086;28;20064;-46
2021/06/18 05:22:31;;;;;;;1.45;1.10;;;27.30;63.00;;;;;;4192521;28;20558;-45
2021/06/18 05:24:55;;;;;;;0.22;0.22;;;27.20;62.90;;;;;;4218553;27;20051;-45
2021/06/18 05:27:17;;;;;;;1.42;1.33;;;27.30;63.00;;;;;;4225876;27;20043;-48
2021/06/18 05:29:38;;;;;;;1.30;1.30;;;27.20;63.00;;;;;;4225944;28;20052;-46
2021/06/18 05:32:01;;;;;;;1.02;1.00;;;27.20;63.10;;;;;;4226038;28;20044;-46
2021/06/18 05:34:23;;;;;;;0.60;0.60;;;27.20;63.50;;;;;;4225304;27;20063;-45
2021/06/18 05:36:45;;;;;;;0.55;0.55;;;27.20;63.40;;;;;;4225773;28;20067;-45
2021/06/18 05:39:07;;;;;;;1.23;1.23;;;27.20;63.30;;;;;;4225335;28;20515;-46
2021/06/18 05:41:31;;;;;;;1.20;0.80;;;27.10;63.30;;;;;;4215960;28;20071;-45
2021/06/18 05:43:53;;;;;;;0.30;0.30;;;27.20;63.40;;;;;;4207043;28;20459;-46
2021/06/18 05:46:15;;;;;;;1.10;1.10;;;27.10;63.40;;;;;;4225221;27;20048;-46
2021/06/18 05:48:38;;;;;;;1.33;1.17;;;27.10;63.40;;;;;;4223817;27;20051;-46
2021/06/18 05:51:01;;;;;;;0.40;0.40;;;27.10;63.40;;;;;;4225139;28;20108;-47
2021/06/18 05:53:23;;;;;;;0.22;0.22;;;27.10;63.40;;;;;;4225349;27;20052;-45
2021/06/18 05:55:46;;;;;;;0.47;0.47;;;27.10;63.40;;;;;;4225509;28;20043;-45
2021/06/18 05:58:09;;;;;;;0.80;0.80;;;27.00;63.30;;;;;;4224779;27;20055;-51
2021/06/18 06:00:31;;;;;;;0.68;0.68;;;27.00;63.30;;;;;;4225488;27;20447;-45
2021/06/18 06:03:03;;;;;;;0.80;0.80;;;27.00;63.30;;;;;;4224351;27;20488;-46
2021/06/18 06:05:25;;;;;;;0.38;0.38;;;27.00;63.30;;;;;;4220550;28;20143;-47
2021/06/18 06:07:47;;;;;;;0.30;0.30;;;27.00;63.30;;;;;;4224617;28;20075;-46
2021/06/18 06:10:18;;;;;;;1.95;0.95;;;27.00;63.30;;;;;;4224924;27;20489;-45
2021/06/18 06:12:41;;;;;;;0.10;0.10;;;27.00;63.40;;;;;;4225028;28;20522;-46
2021/06/18 06:15:05;;;;;;;4.47;1.45;;;27.00;63.50;;;;;;4223644;28;20044;-46
2021/06/18 06:17:28;;;;;;;0.82;0.82;;;27.00;63.60;;;;;;4225156;27;20055;-45
2021/06/18 06:19:49;;;;;;;1.50;1.40;;;26.90;63.60;;;;;;4224697;27;20052;-47
2021/06/18 06:22:12;;;;;;;0.43;0.43;;;26.90;63.60;;;;;;4225341;27;20048;-46
2021/06/18 06:24:36;;;;;;;0.40;0.40;;;26.90;63.70;;;;;;4216986;27;20054;-46
2021/06/18 06:26:58;;;;;;;0.55;0.45;;;26.90;63.70;;;;;;4224388;27;20058;-49
2021/06/18 06:29:20;;;;;;;0.73;0.73;;;26.90;63.70;;;;;;4225080;27;20486;-45
2021/06/18 06:31:44;;;;;;;0.60;0.60;;;26.90;63.80;;;;;;4209414;28;20071;-47
2021/06/18 06:34:06;;;;;;;0.65;0.65;;;26.90;63.90;;;;;;4222251;28;20118;-47
2021/06/18 06:36:28;;;;;;;1.48;1.38;;;26.90;64.10;;;;;;4192266;28;20055;-48
2021/06/18 06:38:51;;;;;;;0.45;0.45;;;26.90;64.80;;;;;;4190978;28;20052;-49
2021/06/18 06:41:13;;;;;;;1.30;1.10;;;26.90;63.70;;;;;;4216634;28;20501;-48
2021/06/18 06:43:35;;;;;;;3.05;0.65;;;27.00;63.70;;;;;;4223576;28;20455;-47
2021/06/18 06:45:58;;;;;;;0.93;0.93;;;27.00;63.70;;;;;;4224383;27;20047;-46
2021/06/18 06:48:21;;;;;;;0.38;0.38;;;27.00;63.60;;;;;;4224504;27;20073;-46
2021/06/18 06:50:43;;;;;;;0.47;0.47;;;27.00;63.50;;;;;;4224595;28;20051;-52
2021/06/18 06:53:06;;;;;;;0.08;0.08;;;27.10;63.60;;;;;;4193685;28;20052;-46
2021/06/18 06:55:28;;;;;;;0.40;0.40;;;27.10;63.50;;;;;;4224699;28;20093;-45
2021/06/18 06:57:51;;;;;;;0.70;0.50;;;27.10;63.50;;;;;;4224739;28;20408;-46
2021/06/18 07:00:15;;;;;;;0.43;0.43;;;27.10;63.40;;;;;;4224918;28;20039;-46
2021/06/18 07:02:37;;;;;;;0.30;0.30;;;27.10;63.40;;;;;;4224851;28;20490;-47
2021/06/18 07:05:01;;;;;;;0.55;0.55;;;27.10;63.40;;;;;;4224691;28;20047;-48
2021/06/18 07:07:23;;;;;;;0.43;0.43;;;27.10;63.40;;;;;;4224653;28;20066;-48
2021/06/18 07:09:45;;;;;;;0.45;0.28;;;27.10;63.40;;;;;;4226380;28;20046;-46
2021/06/18 07:12:09;;;;;;;0.52;0.52;;;27.10;63.40;;;;;;4227830;27;20459;-47
2021/06/18 07:14:31;;;;;;;0.22;0.22;;;27.10;63.40;;;;;;4228011;27;20065;-46
2021/06/18 07:16:53;;;;;;;0.10;0.10;;;27.10;63.60;;;;;;4228499;28;20047;-48
2021/06/18 07:19:15;;;;;;;0.35;0.35;;;27.10;64.30;;;;;;4228080;27;20062;-46
2021/06/18 07:21:39;;;;;;;0.17;0.17;;;27.10;63.50;;;;;;4212271;28;20097;-47
2021/06/18 07:24:01;;;;;;;0.20;0.20;;;27.10;63.50;;;;;;4215852;28;20059;-49
2021/06/18 07:26:23;;;;;;;0.98;0.98;;;27.10;63.40;;;;;;4196768;28;20041;-48
2021/06/18 07:28:46;;;;;;;1.25;1.25;;;27.10;63.40;;;;;;4226684;27;20093;-47
2021/06/18 07:31:08;;;;;;;0.57;0.57;;;27.10;64.30;;;;;;4227877;27;20055;-46
2021/06/18 07:33:30;;;;;;;1.55;0.70;;;27.10;63.40;;;;;;4227492;27;20051;-48
2021/06/18 07:35:52;;;;;;;0.10;0.10;;;27.20;63.40;;;;;;4228206;27;20047;-48
2021/06/18 07:38:15;;;;;;;0.10;0.10;;;27.20;63.30;;;;;;4227919;27;20552;-46
2021/06/18 07:40:38;;;;;;;0.55;0.55;;;27.20;63.20;;;;;;4227690;28;20044;-48
2021/06/18 07:43:00;;;;;;;1.13;1.10;;;27.20;63.10;;;;;;4227719;27;20563;-47
2021/06/18 07:45:23;;;;;;;0.00;0.00;;;27.30;63.10;;;;;;4227203;28;20051;-49
2021/06/18 07:47:45;;;;;;;0.20;0.20;;;27.30;63.00;;;;;;4226853;27;20101;-47
2021/06/18 07:50:09;;;;;;;0.20;0.20;;;27.40;63.90;;;;;;4227663;27;20051;-48
2021/06/18 07:52:31;;;;;;;0.35;0.35;;;27.40;62.90;;;;;;4227826;27;20052;-46
2021/06/18 07:54:57;;;;;;;0.10;0.10;;;27.40;62.80;;;;;;4227969;27;20049;-45
2021/06/18 07:57:20;;;;;;;0.28;0.28;;;27.50;62.70;;;;;;4227615;28;20055;-49
2021/06/18 07:59:42;;;;;;;0.43;0.43;;;27.50;62.60;;;;;;4227446;27;20043;-50
2021/06/18 08:02:04;;;;;;;0.10;0.10;;;27.50;62.60;;;;;;4227568;27;20039;-50
2021/06/18 08:04:42;;;;;;;0.35;0.35;;;27.50;62.60;;;;;;4227061;27;20073;-50
2021/06/18 08:07:04;;;;;;;0.17;0.17;;;27.40;62.50;;;;;;4227060;27;20053;-49
2021/06/18 08:09:26;;;;;;;0.52;0.52;;;27.50;62.50;;;;;;4227323;27;20471;-50
2021/06/18 08:11:49;;;;;;;2.03;1.55;;;27.50;62.50;;;;;;4227414;27;20489;-51
2021/06/18 08:14:11;;;;;;;0.10;0.10;;;27.50;62.50;;;;;;4226729;28;20043;-51
2021/06/18 08:16:34;;;;;;;0.22;0.22;;;27.50;62.40;;;;;;4227294;27;20074;-53
2021/06/18 08:18:56;;;;;;;0.80;0.80;;;27.60;62.50;;;;;;4227281;27;20071;-51
2021/06/18 08:21:18;;;;;;;0.32;0.32;;;27.50;62.50;;;;;;4226252;27;20466;-48
2021/06/18 08:23:40;;;;;;;0.70;0.70;;;27.50;62.50;;;;;;4226590;27;20066;-47
2021/06/18 08:26:02;;;;;;;0.00;0.00;;;27.60;62.60;;;;;;4226611;27;20130;-48
2021/06/18 08:28:26;;;;;;;0.25;0.25;;;27.50;62.60;;;;;;4227225;27;20129;-47
2021/06/18 08:30:48;;;;;;;0.65;0.52;;;27.50;62.60;;;;;;4227092;27;20050;-46
2021/06/18 08:33:11;;;;;;;0.15;0.15;;;27.50;62.70;;;;;;4225822;28;20066;-46
2021/06/18 08:35:33;;;;;;;0.63;0.63;;;27.50;62.70;;;;;;4225642;28;20043;-50
2021/06/18 08:37:56;;;;;;;0.25;0.25;;;27.50;62.70;;;;;;4226917;28;20043;-47
2021/06/18 08:40:18;;;;;;;0.30;0.30;;;27.50;62.70;;;;;;4226550;27;20481;-47
2021/06/18 08:42:41;;;;;;;0.20;0.20;;;27.60;62.80;;;;;;4226887;27;20035;-47
2021/06/18 08:45:05;;;;;;;0.10;0.10;;;27.60;62.80;;;;;;4227045;27;20100;-45
2021/06/18 08:47:28;;;;;;;0.47;0.47;;;27.60;62.60;;;;;;4227022;27;20055;-46
2021/06/18 08:49:51;;;;;;;0.25;0.25;;;27.70;62.50;;;;;;4226745;28;20459;-48
2021/06/18 08:52:13;;;;;;;0.00;0.00;;;27.70;62.40;;;;;;4226123;27;20078;-47
2021/06/18 08:54:43;;;;;;;0.20;0.20;;;27.70;62.20;;;;;;4226252;28;20044;-46
2021/06/18 08:57:05;;;;;;;0.25;0.25;;;27.80;62.20;;;;;;4226226;28;20047;-48
2021/06/18 08:59:27;;;;;;;0.20;0.20;;;27.70;62.20;;;;;;4226721;27;20083;-46
2021/06/18 09:01:51;;;;;;;0.32;0.32;;;27.70;62.30;;;;;;4226460;27;20417;-48
2021/06/18 09:04:13;;;;;;;0.80;0.80;;;27.80;62.40;;;;;;4226277;28;20058;-46
2021/06/18 09:06:39;;;;;;;0.47;0.47;;;27.70;62.30;;;;;;4226501;27;20044;-47
2021/06/18 09:09:19;;;;;;;0.35;0.35;;;27.70;62.30;;;;;;4226132;27;20047;-47
2021/06/18 09:11:44;;;;;;;0.32;0.32;;;27.70;62.40;;;;;;4226286;27;20515;-49
2021/06/18 09:14:21;;;;;;;0.20;0.20;;;27.80;62.30;;;;;;4226233;28;20047;-46
2021/06/18 09:16:44;;;;;;;0.30;0.30;;;27.80;62.40;;;;;;4226048;28;20059;-46
2021/06/18 09:19:24;;;;;;;0.22;0.22;;;27.80;62.30;;;;;;4210353;28;20040;-49
2021/06/18 09:21:57;;;;;;;0.20;0.20;;;27.80;62.20;;;;;;4219923;27;20067;-48
2021/06/18 09:24:27;;;;;;;0.73;0.73;;;27.90;62.20;;;;;;4225507;28;20060;-46
2021/06/18 09:26:51;;;;;;;0.40;0.40;;;27.90;62.00;;;;;;4225464;27;20051;-49
2021/06/18 09:29:15;;;;;;;0.25;0.25;;;28.00;62.00;;;;;;4194707;28;20059;-48
2021/06/18 09:31:40;;;;;;;0.13;0.13;;;28.10;61.90;;;;;;4225538;27;20047;-51
2021/06/18 09:34:03;;;;;;;0.20;0.20;;;28.10;61.80;;;;;;4194105;28;20123;-49
2021/06/18 09:36:27;;;;;;;0.25;0.25;;;28.20;61.70;;;;;;4209968;28;20059;-48
2021/06/18 09:38:54;;;;;;;0.20;0.20;;;28.20;61.50;;;;;;4225742;28;21206;-46
2021/06/18 09:41:38;;;;;;;0.32;0.32;;;28.20;61.50;;;;;;4225495;27;20058;-47
2021/06/18 09:44:01;;;;;;;0.63;0.63;;;28.30;61.40;;;;;;4225733;27;20056;-45
2021/06/18 09:46:40;;;;;;;1.02;1.02;;;28.30;61.40;;;;;;4225736;28;20512;-46
2021/06/18 09:49:02;;;;;;;0.68;0.68;;;28.30;61.40;;;;;;4225649;27;20405;-51
2021/06/18 09:51:27;;;;;;;0.63;0.63;;;28.30;62.30;;;;;;4225644;27;20412;-47
2021/06/18 09:53:49;;;;;;;0.00;0.00;;;28.40;61.40;;;;;;4225838;28;20044;-50
2021/06/18 09:56:14;;;;;;;0.03;0.03;;;28.50;61.30;;;;;;4225721;27;20047;-45
2021/06/18 09:58:37;;;;;;;0.00;0.00;;;28.50;61.20;;;;;;4225084;27;20131;-46
2021/06/18 10:01:17;;;;;;;0.08;0.08;;;28.50;61.10;;;;;;4225934;27;20493;-46
2021/06/18 10:03:57;;;;;;;0.00;0.00;;;28.50;60.90;;;;;;4225256;28;20049;-46
2021/06/18 10:06:21;;;;;;;0.25;0.25;;;28.50;60.90;;;;;;4225250;28;20587;-48
2021/06/18 10:08:45;;;;;;;0.28;0.28;;;28.50;61.70;;;;;;4225587;27;20044;-46
2021/06/18 10:11:07;;;;;;;0.20;0.20;;;28.60;60.90;;;;;;4225132;27;20047;-46
2021/06/18 10:13:30;;;;;;;0.03;0.03;;;28.60;60.70;;;;;;4225413;27;20142;-46
2021/06/18 10:15:52;;;;;;;0.17;0.17;;;28.60;60.70;;;;;;4225300;27;20040;-46
2021/06/18 10:18:15;;;;;;;0.20;0.20;;;28.60;60.70;;;;;;4224638;28;20051;-46
2021/06/18 10:20:37;;;;;;;0.20;0.20;;;28.60;60.70;;;;;;4223618;28;20095;-47
2021/06/18 10:23:04;;;;;;;0.10;0.10;;;28.60;60.70;;;;;;4225374;27;20691;-50
2021/06/18 10:25:31;;;;;;;0.00;0.00;;;28.60;60.70;;;;;;4224578;28;20059;-49
2021/06/18 10:27:55;;;;;;;0.00;0.00;;;28.60;60.70;;;;;;4224333;27;20515;-47
2021/06/18 10:30:37;;;;;;;2.20;1.33;;;28.60;60.70;;;;;;4224907;27;20053;-47
2021/06/18 10:33:01;;;;;;;0.25;0.25;;;28.60;60.70;;;;;;4208460;28;20153;-47
2021/06/18 10:35:48;;;;;;;0.10;0.10;;;28.60;60.80;;;;;;4208283;28;20105;-49
2021/06/18 10:38:15;;;;;;;1.48;1.00;;;28.60;60.80;;;;;;4208067;28;20048;-47
2021/06/18 10:40:45;;;;;;;0.30;0.30;;;28.60;60.70;;;;;;4208417;28;20048;-47
2021/06/18 10:43:13;;;;;;;0.00;0.00;;;28.60;60.70;;;;;;4207801;28;20810;-48
2021/06/18 10:46:06;;;;;;;0.10;0.10;;;28.60;60.70;;;;;;4208281;28;20055;-46
2021/06/18 10:48:56;;;;;;;1.08;0.80;;;28.60;60.60;;;;;;4218109;28;20044;-48
2021/06/18 10:51:46;;;;;;;0.32;0.32;;;28.70;60.60;;;;;;4224570;28;20150;-52
2021/06/18 10:54:12;;;;;;;0.57;0.20;;;28.70;60.60;;;;;;4196922;28;20058;-46
2021/06/18 10:57:12;;;;;;;0.00;0.00;;;28.70;60.70;;;;;;4225111;28;20044;-47
2021/06/18 10:59:48;;;;;;;0.52;0.52;;;28.70;60.60;;;;;;4224210;28;20055;-46
2021/06/18 11:02:35;;;;;;;1.35;0.50;;;28.70;60.60;;;;;;4224750;28;20050;-48
2021/06/18 11:04:58;;;;;;;0.00;0.00;;;28.70;60.50;;;;;;4224792;28;20047;-46
2021/06/18 11:07:23;;;;;;;0.00;0.00;;;28.70;60.50;;;;;;4224474;28;20130;-48
2021/06/18 11:09:45;;;;;;;0.00;0.00;;;28.70;60.40;;;;;;4224922;28;20047;-50
2021/06/18 11:12:40;;;;;;;0.43;0.43;;;28.70;60.40;;;;;;4224725;28;20054;-50
2021/06/18 11:15:06;;;;;;;0.10;0.10;;;28.70;60.40;;;;;;4224296;28;20558;-46
2021/06/18 11:17:45;;;;;;;0.00;0.00;;;28.80;60.40;;;;;;4223259;28;20051;-46
2021/06/18 11:20:10;;;;;;;2.00;0.47;;;28.80;60.40;;;;;;4224192;28;20057;-48
2021/06/18 11:22:37;;;;;;;0.15;0.15;;;28.80;60.40;;;;;;4224378;28;20455;-49
2021/06/18 11:24:59;;;;;;;0.15;0.15;;;28.80;60.40;;;;;;4222326;28;20067;-49
2021/06/18 11:27:23;;;;;;;0.35;0.35;;;28.80;60.40;;;;;;4224085;28;20059;-47
2021/06/18 11:29:46;;;;;;;0.00;0.00;;;28.80;61.30;;;;;;4208592;28;20048;-51
2021/06/18 11:32:41;;;;;;;0.10;0.10;;;28.80;60.40;;;;;;4222096;28;20054;-50
2021/06/18 11:35:37;;;;;;;0.45;0.40;;;28.80;60.40;;;;;;4207342;28;20387;-51
2021/06/18 11:38:01;;;;;;;1.00;0.85;;;28.80;60.50;;;;;;4207301;28;20068;-50
2021/06/18 11:40:23;;;;;;;0.00;0.00;;;28.80;60.50;;;;;;4208250;28;20502;-51
2021/06/18 11:42:46;;;;;;;0.13;0.13;;;28.80;61.50;;;;;;4224288;28;20049;-52
2021/06/18 11:45:11;;;;;;;0.20;0.20;;;28.80;60.50;;;;;;4224302;28;20862;-51
2021/06/18 11:47:35;;;;;;;0.00;0.00;;;28.80;60.60;;;;;;4220445;28;20122;-47
2021/06/18 11:49:56;;;;;;;0.10;0.10;;;28.80;60.60;;;;;;4223728;28;20546;-47
2021/06/18 11:52:19;;;;;;;0.05;0.05;;;28.80;60.60;;;;;;4224382;28;20130;-45
2021/06/18 11:54:43;;;;;;;0.73;0.73;;;28.80;60.60;;;;;;4222053;28;20052;-51
2021/06/18 11:57:26;;;;;;;0.32;0.32;;;28.80;60.60;;;;;;4223532;27;20054;-47
2021/06/18 11:59:57;;;;;;;0.22;0.22;;;28.80;60.60;;;;;;4206897;28;20065;-47
2021/06/18 12:02:23;;;;;;;0.10;0.10;;;28.80;60.60;;;;;;4225869;27;20044;-47
2021/06/18 12:04:46;;;;;;;0.00;0.00;;;28.90;60.60;;;;;;4227238;27;20077;-48
2021/06/18 12:07:08;;;;;;;0.22;0.22;;;28.80;60.40;;;;;;4227225;27;20092;-49
2021/06/18 12:09:40;;;;;;;0.00;0.00;;;28.90;60.50;;;;;;4227152;28;20052;-47
2021/06/18 12:12:03;;;;;;;5.68;0.47;;;28.80;61.50;;;;;;4226844;27;20405;-45
2021/06/18 12:14:26;;;;;;;0.05;0.05;;;28.90;60.80;;;;;;4227044;28;20703;-46
2021/06/18 12:16:50;;;;;;;0.00;0.00;;;28.90;60.90;;;;;;4226865;28;20054;-49
2021/06/18 12:19:21;;;;;;;0.00;0.00;;;28.90;61.00;;;;;;4226877;27;20100;-50
2021/06/18 12:21:43;;;;;;;0.00;0.00;;;28.80;61.00;;;;;;4226981;27;20048;-46
2021/06/18 12:24:06;;;;;;;0.47;0.47;;;28.80;61.10;;;;;;4220735;27;20482;-46
2021/06/18 12:26:28;;;;;;;0.00;0.00;;;28.80;61.20;;;;;;4226660;28;20134;-48
2021/06/18 12:28:51;;;;;;;0.22;0.22;;;28.80;61.20;;;;;;4222977;27;20044;-46
2021/06/18 12:31:13;;;;;;;0.08;0.08;;;28.80;61.30;;;;;;4222355;28;20055;-51
2021/06/18 12:33:35;;;;;;;0.13;0.13;;;28.80;61.30;;;;;;4222763;28;20051;-48
2021/06/18 12:36:01;;;;;;;0.90;0.90;;;28.90;61.50;;;;;;4209859;28;20048;-47